Hlavní strana
METAR-TAF:

METAR-TAF

Letiště :

Čcheng-tu, Čína

Mezinárodní letiště Čcheng-tu Šuang-liou

zeměpisná šířka: 30-40N, zeměpisná délka: 104-01E, výška: 508 m

Aktuální stav počasí

Zpráva byla vytvořena před 19 minutami, v 23:00 UTC
Bezvětří
Teplota 3°C
Vlhkost vzduchu 100%
Tlak 1025 hPa
Viditelnost: 4500 m
kouřmo

METAR: ZUUU 182300Z 00000MPS 4500 BR NSC 03/03 Q1025 NOSIG

Čas: 07:19 (23:19 UTC)

Předpověď počasí

Zpráva byla vytvořena před 9 hodinami a 8 minutami, v 14:11 UTC
Předpověď platná od 18 v 18 UTC do 19 v 18 UTC
Jihojihozápadní vítr 6 kt
Viditelnost: 5000 m
Polojasno ve výšce 5000 ft
kouřmo
Změna
od 18 v 22 UTC do 18 v 23 UTC
Viditelnost: 1900 m
Změna
od 19 v 02 UTC do 19 v 03 UTC
Viditelnost: 5000 m

TAF: ZUUU 181411Z 1818/1918 20003MPS 5000 BR SCT050 TX13/1907Z TN05/1823Z BECMG 1822/1823 1900 BECMG 1902/1903 5000

Stav a předpovědi počasí z více než 4 000 letišť (zprávy METAR a TAF).

Červené a žluté tečky na mapě představují dostupné meteorologické stanice.

Když kurzor umístíte na tečku, zobrazí se název stanice.

Pak kliknutím zobrazíte stav a předpověď počasí.

Chcete-li změnit mapu, kliknutím na zelené tlačítko se znaménkem +mapu přiblížíte, kliknutím na zelené tlačítko se znaménkem – mapu oddálíte a kliknutím na zelené šipky přejdete na sousední mapy.


METAR-TAF: